sensor_id;sensor_type;location;lat;lon;timestamp;P1;durP1;ratioP1;P2;durP2;ratioP2
33952;SDS011;20231;42.710;23.280;2023-07-24T00:01:08;12.82;;;7.97;;
33952;SDS011;20231;42.710;23.280;2023-07-24T00:03:34;14.52;;;9.00;;
33952;SDS011;20231;42.710;23.280;2023-07-24T00:05:59;12.82;;;8.38;;
33952;SDS011;20231;42.710;23.280;2023-07-24T00:08:24;10.35;;;7.25;;
33952;SDS011;20231;42.710;23.280;2023-07-24T00:10:50;12.57;;;8.20;;
33952;SDS011;20231;42.710;23.280;2023-07-24T00:13:15;10.77;;;7.45;;
33952;SDS011;20231;42.710;23.280;2023-07-24T00:15:41;12.68;;;8.18;;
33952;SDS011;20231;42.710;23.280;2023-07-24T00:18:06;13.40;;;8.52;;
33952;SDS011;20231;42.710;23.280;2023-07-24T00:20:31;13.20;;;7.88;;
33952;SDS011;20231;42.710;23.280;2023-07-24T00:22:57;14.40;;;8.35;;
33952;SDS011;20231;42.710;23.280;2023-07-24T00:25:22;11.48;;;8.18;;
33952;SDS011;20231;42.710;23.280;2023-07-24T00:27:47;13.77;;;8.75;;
33952;SDS011;20231;42.710;23.280;2023-07-24T00:30:13;11.85;;;8.00;;
33952;SDS011;20231;42.710;23.280;2023-07-24T00:32:38;12.52;;;8.02;;
33952;SDS011;20231;42.710;23.280;2023-07-24T00:35:04;13.63;;;8.15;;
33952;SDS011;20231;42.710;23.280;2023-07-24T00:37:30;11.65;;;8.15;;
33952;SDS011;20231;42.710;23.280;2023-07-24T00:39:55;13.65;;;7.95;;
33952;SDS011;20231;42.710;23.280;2023-07-24T00:42:20;13.68;;;8.57;;
33952;SDS011;20231;42.710;23.280;2023-07-24T00:44:46;12.98;;;9.38;;
33952;SDS011;20231;42.710;23.280;2023-07-24T00:47:11;12.73;;;9.10;;
33952;SDS011;20231;42.710;23.280;2023-07-24T00:49:36;11.90;;;8.30;;
33952;SDS011;20231;42.710;23.280;2023-07-24T00:52:02;12.88;;;7.65;;
33952;SDS011;20231;42.710;23.280;2023-07-24T00:54:28;10.98;;;7.78;;
33952;SDS011;20231;42.710;23.280;2023-07-24T00:56:56;12.07;;;8.30;;
33952;SDS011;20231;42.710;23.280;2023-07-24T00:59:21;17.20;;;8.90;;
33952;SDS011;20231;42.710;23.280;2023-07-24T01:01:47;12.68;;;8.43;;
33952;SDS011;20231;42.710;23.280;2023-07-24T01:04:12;12.18;;;8.20;;
33952;SDS011;20231;42.710;23.280;2023-07-24T01:06:39;12.18;;;7.32;;
33952;SDS011;20231;42.710;23.280;2023-07-24T01:09:05;18.30;;;8.60;;
33952;SDS011;20231;42.710;23.280;2023-07-24T01:11:37;13.90;;;7.88;;
33952;SDS011;20231;42.710;23.280;2023-07-24T01:16:42;10.73;;;7.78;;
33952;SDS011;20231;42.710;23.280;2023-07-24T01:19:12;12.20;;;8.18;;
33952;SDS011;20231;42.710;23.280;2023-07-24T01:27:44;11.82;;;8.50;;
33952;SDS011;20231;42.710;23.280;2023-07-24T01:30:11;13.75;;;8.25;;
33952;SDS011;20231;42.710;23.280;2023-07-24T01:32:38;12.63;;;8.15;;
33952;SDS011;20231;42.710;23.280;2023-07-24T01:35:04;13.98;;;8.35;;
33952;SDS011;20231;42.710;23.280;2023-07-24T01:37:30;13.25;;;7.93;;
33952;SDS011;20231;42.710;23.280;2023-07-24T01:39:56;10.93;;;7.68;;
33952;SDS011;20231;42.710;23.280;2023-07-24T01:42:24;13.45;;;8.63;;
33952;SDS011;20231;42.710;23.280;2023-07-24T01:44:51;12.25;;;7.97;;
33952;SDS011;20231;42.710;23.280;2023-07-24T01:47:17;13.07;;;8.10;;
33952;SDS011;20231;42.710;23.280;2023-07-24T01:49:42;12.50;;;8.27;;
33952;SDS011;20231;42.710;23.280;2023-07-24T01:52:08;11.23;;;8.45;;
33952;SDS011;20231;42.710;23.280;2023-07-24T01:54:33;13.52;;;8.82;;
33952;SDS011;20231;42.710;23.280;2023-07-24T01:56:59;14.80;;;8.32;;
33952;SDS011;20231;42.710;23.280;2023-07-24T01:59:24;11.77;;;8.15;;
33952;SDS011;20231;42.710;23.280;2023-07-24T02:01:49;13.90;;;8.60;;
33952;SDS011;20231;42.710;23.280;2023-07-24T02:04:15;13.55;;;8.90;;
33952;SDS011;20231;42.710;23.280;2023-07-24T02:06:40;10.95;;;8.40;;
33952;SDS011;20231;42.710;23.280;2023-07-24T02:09:06;10.15;;;8.00;;
33952;SDS011;20231;42.710;23.280;2023-07-24T02:11:31;14.65;;;8.73;;
33952;SDS011;20231;42.710;23.280;2023-07-24T02:13:56;11.68;;;8.23;;
33952;SDS011;20231;42.710;23.280;2023-07-24T02:16:22;13.80;;;8.00;;
33952;SDS011;20231;42.710;23.280;2023-07-24T02:18:47;13.35;;;8.50;;
33952;SDS011;20231;42.710;23.280;2023-07-24T02:21:13;12.15;;;7.82;;
33952;SDS011;20231;42.710;23.280;2023-07-24T02:23:38;12.00;;;9.02;;
33952;SDS011;20231;42.710;23.280;2023-07-24T02:26:03;13.15;;;8.30;;
33952;SDS011;20231;42.710;23.280;2023-07-24T02:28:29;14.10;;;8.27;;
33952;SDS011;20231;42.710;23.280;2023-07-24T02:30:54;14.52;;;9.18;;
33952;SDS011;20231;42.710;23.280;2023-07-24T02:33:22;14.73;;;8.90;;
33952;SDS011;20231;42.710;23.280;2023-07-24T02:35:48;15.48;;;7.93;;
33952;SDS011;20231;42.710;23.280;2023-07-24T02:38:16;12.85;;;8.48;;
33952;SDS011;20231;42.710;23.280;2023-07-24T02:40:41;11.77;;;7.85;;
33952;SDS011;20231;42.710;23.280;2023-07-24T02:43:07;15.50;;;8.95;;
33952;SDS011;20231;42.710;23.280;2023-07-24T02:45:38;13.13;;;8.48;;
33952;SDS011;20231;42.710;23.280;2023-07-24T02:48:04;13.13;;;8.27;;
33952;SDS011;20231;42.710;23.280;2023-07-24T02:50:30;11.82;;;7.95;;
33952;SDS011;20231;42.710;23.280;2023-07-24T02:52:55;11.35;;;8.40;;
33952;SDS011;20231;42.710;23.280;2023-07-24T02:55:21;14.35;;;8.45;;
33952;SDS011;20231;42.710;23.280;2023-07-24T02:57:46;13.98;;;8.20;;
33952;SDS011;20231;42.710;23.280;2023-07-24T03:00:12;17.40;;;9.10;;
33952;SDS011;20231;42.710;23.280;2023-07-24T03:02:38;12.68;;;8.68;;
33952;SDS011;20231;42.710;23.280;2023-07-24T03:05:06;13.07;;;8.52;;
33952;SDS011;20231;42.710;23.280;2023-07-24T03:07:32;16.33;;;8.88;;
33952;SDS011;20231;42.710;23.280;2023-07-24T03:10:00;13.15;;;8.70;;
33952;SDS011;20231;42.710;23.280;2023-07-24T03:12:26;13.70;;;8.88;;
33952;SDS011;20231;42.710;23.280;2023-07-24T03:14:52;15.45;;;9.48;;
33952;SDS011;20231;42.710;23.280;2023-07-24T03:17:17;13.00;;;8.60;;
33952;SDS011;20231;42.710;23.280;2023-07-24T03:19:43;11.50;;;8.20;;
33952;SDS011;20231;42.710;23.280;2023-07-24T03:22:08;14.32;;;8.85;;
33952;SDS011;20231;42.710;23.280;2023-07-24T03:24:33;12.75;;;8.77;;
33952;SDS011;20231;42.710;23.280;2023-07-24T03:27:00;12.75;;;8.77;;
33952;SDS011;20231;42.710;23.280;2023-07-24T03:29:25;12.35;;;8.05;;
33952;SDS011;20231;42.710;23.280;2023-07-24T03:31:51;13.60;;;8.60;;
33952;SDS011;20231;42.710;23.280;2023-07-24T03:34:17;14.18;;;7.97;;
33952;SDS011;20231;42.710;23.280;2023-07-24T03:36:42;12.55;;;8.35;;
33952;SDS011;20231;42.710;23.280;2023-07-24T03:39:09;16.13;;;8.10;;
33952;SDS011;20231;42.710;23.280;2023-07-24T03:41:35;12.10;;;7.88;;
33952;SDS011;20231;42.710;23.280;2023-07-24T03:44:00;12.35;;;8.73;;
33952;SDS011;20231;42.710;23.280;2023-07-24T03:46:26;15.10;;;8.80;;
33952;SDS011;20231;42.710;23.280;2023-07-24T03:48:51;12.65;;;8.70;;
33952;SDS011;20231;42.710;23.280;2023-07-24T03:51:17;11.90;;;8.95;;
33952;SDS011;20231;42.710;23.280;2023-07-24T03:53:42;14.27;;;8.10;;
33952;SDS011;20231;42.710;23.280;2023-07-24T03:56:08;13.57;;;8.50;;
33952;SDS011;20231;42.710;23.280;2023-07-24T03:58:33;13.43;;;8.13;;
33952;SDS011;20231;42.710;23.280;2023-07-24T04:00:59;13.82;;;8.52;;
33952;SDS011;20231;42.710;23.280;2023-07-24T04:03:24;13.63;;;8.95;;
33952;SDS011;20231;42.710;23.280;2023-07-24T04:05:49;12.77;;;8.70;;
33952;SDS011;20231;42.710;23.280;2023-07-24T04:08:15;16.30;;;8.45;;
33952;SDS011;20231;42.710;23.280;2023-07-24T04:10:40;14.05;;;9.32;;
33952;SDS011;20231;42.710;23.280;2023-07-24T04:13:06;13.05;;;7.90;;
33952;SDS011;20231;42.710;23.280;2023-07-24T04:15:31;13.02;;;8.50;;
33952;SDS011;20231;42.710;23.280;2023-07-24T04:17:56;13.68;;;8.77;;
33952;SDS011;20231;42.710;23.280;2023-07-24T04:20:22;11.65;;;8.57;;
33952;SDS011;20231;42.710;23.280;2023-07-24T04:22:47;13.65;;;8.52;;
33952;SDS011;20231;42.710;23.280;2023-07-24T04:25:13;14.57;;;9.60;;
33952;SDS011;20231;42.710;23.280;2023-07-24T04:27:38;13.10;;;8.48;;
33952;SDS011;20231;42.710;23.280;2023-07-24T04:30:04;12.38;;;8.50;;
33952;SDS011;20231;42.710;23.280;2023-07-24T04:32:29;16.63;;;8.88;;
33952;SDS011;20231;42.710;23.280;2023-07-24T04:34:55;13.07;;;8.63;;
33952;SDS011;20231;42.710;23.280;2023-07-24T04:37:20;15.80;;;9.15;;
33952;SDS011;20231;42.710;23.280;2023-07-24T04:39:46;14.90;;;9.07;;
33952;SDS011;20231;42.710;23.280;2023-07-24T04:42:11;13.82;;;9.75;;
33952;SDS011;20231;42.710;23.280;2023-07-24T04:44:36;14.70;;;9.00;;
33952;SDS011;20231;42.710;23.280;2023-07-24T04:47:02;14.90;;;9.00;;
33952;SDS011;20231;42.710;23.280;2023-07-24T04:49:31;18.70;;;9.18;;
33952;SDS011;20231;42.710;23.280;2023-07-24T04:51:57;16.45;;;9.57;;
33952;SDS011;20231;42.710;23.280;2023-07-24T04:54:23;15.15;;;8.77;;
33952;SDS011;20231;42.710;23.280;2023-07-24T04:56:49;17.00;;;9.82;;
33952;SDS011;20231;42.710;23.280;2023-07-24T04:59:14;17.23;;;9.07;;
33952;SDS011;20231;42.710;23.280;2023-07-24T05:01:39;16.27;;;9.25;;
33952;SDS011;20231;42.710;23.280;2023-07-24T05:04:05;17.05;;;8.70;;
33952;SDS011;20231;42.710;23.280;2023-07-24T05:06:30;15.30;;;9.30;;
33952;SDS011;20231;42.710;23.280;2023-07-24T05:08:56;12.55;;;8.75;;
33952;SDS011;20231;42.710;23.280;2023-07-24T05:11:21;18.20;;;9.30;;
33952;SDS011;20231;42.710;23.280;2023-07-24T05:13:46;23.10;;;10.35;;
33952;SDS011;20231;42.710;23.280;2023-07-24T05:16:12;14.20;;;9.85;;
33952;SDS011;20231;42.710;23.280;2023-07-24T05:18:37;23.25;;;10.57;;
33952;SDS011;20231;42.710;23.280;2023-07-24T05:21:02;17.35;;;9.85;;
33952;SDS011;20231;42.710;23.280;2023-07-24T05:23:28;16.17;;;10.27;;
33952;SDS011;20231;42.710;23.280;2023-07-24T05:25:57;15.68;;;10.48;;
33952;SDS011;20231;42.710;23.280;2023-07-24T05:28:23;17.88;;;10.63;;
33952;SDS011;20231;42.710;23.280;2023-07-24T05:30:51;17.10;;;10.95;;
33952;SDS011;20231;42.710;23.280;2023-07-24T05:33:16;17.77;;;9.77;;
33952;SDS011;20231;42.710;23.280;2023-07-24T05:35:41;19.73;;;11.40;;
33952;SDS011;20231;42.710;23.280;2023-07-24T05:38:08;22.00;;;11.13;;
33952;SDS011;20231;42.710;23.280;2023-07-24T05:40:33;17.02;;;10.80;;
33952;SDS011;20231;42.710;23.280;2023-07-24T05:42:59;15.52;;;10.55;;
33952;SDS011;20231;42.710;23.280;2023-07-24T05:45:24;20.30;;;10.20;;
33952;SDS011;20231;42.710;23.280;2023-07-24T05:47:49;19.52;;;10.98;;
33952;SDS011;20231;42.710;23.280;2023-07-24T05:50:15;28.08;;;10.88;;
33952;SDS011;20231;42.710;23.280;2023-07-24T05:52:40;20.98;;;11.30;;
33952;SDS011;20231;42.710;23.280;2023-07-24T05:55:06;19.73;;;10.70;;
33952;SDS011;20231;42.710;23.280;2023-07-24T05:57:31;22.75;;;10.90;;
33952;SDS011;20231;42.710;23.280;2023-07-24T05:59:57;22.83;;;11.82;;
33952;SDS011;20231;42.710;23.280;2023-07-24T06:02:22;17.50;;;12.07;;
33952;SDS011;20231;42.710;23.280;2023-07-24T06:04:47;19.85;;;10.77;;
33952;SDS011;20231;42.710;23.280;2023-07-24T06:07:13;17.58;;;11.93;;
33952;SDS011;20231;42.710;23.280;2023-07-24T06:09:38;19.00;;;11.68;;
33952;SDS011;20231;42.710;23.280;2023-07-24T06:12:04;25.90;;;13.25;;
33952;SDS011;20231;42.710;23.280;2023-07-24T06:14:29;24.05;;;11.25;;
33952;SDS011;20231;42.710;23.280;2023-07-24T06:16:55;17.92;;;11.40;;
33952;SDS011;20231;42.710;23.280;2023-07-24T06:19:20;27.48;;;13.98;;
33952;SDS011;20231;42.710;23.280;2023-07-24T06:21:46;24.90;;;12.55;;
33952;SDS011;20231;42.710;23.280;2023-07-24T06:24:11;20.85;;;11.10;;
33952;SDS011;20231;42.710;23.280;2023-07-24T06:26:38;19.40;;;12.38;;
33952;SDS011;20231;42.710;23.280;2023-07-24T06:29:04;23.13;;;11.40;;
33952;SDS011;20231;42.710;23.280;2023-07-24T06:31:29;27.60;;;12.68;;
33952;SDS011;20231;42.710;23.280;2023-07-24T06:33:54;24.75;;;12.85;;
33952;SDS011;20231;42.710;23.280;2023-07-24T06:36:20;28.38;;;13.15;;
33952;SDS011;20231;42.710;23.280;2023-07-24T06:38:45;28.50;;;13.57;;
33952;SDS011;20231;42.710;23.280;2023-07-24T06:41:12;23.20;;;13.02;;
33952;SDS011;20231;42.710;23.280;2023-07-24T06:43:40;25.15;;;12.10;;
33952;SDS011;20231;42.710;23.280;2023-07-24T06:46:06;26.48;;;12.68;;
33952;SDS011;20231;42.710;23.280;2023-07-24T06:48:31;28.55;;;13.55;;
33952;SDS011;20231;42.710;23.280;2023-07-24T06:50:57;21.70;;;12.25;;
33952;SDS011;20231;42.710;23.280;2023-07-24T06:53:22;25.15;;;12.63;;
33952;SDS011;20231;42.710;23.280;2023-07-24T06:55:48;27.05;;;12.75;;
33952;SDS011;20231;42.710;23.280;2023-07-24T06:58:13;28.60;;;15.20;;
33952;SDS011;20231;42.710;23.280;2023-07-24T07:00:38;25.00;;;12.70;;
33952;SDS011;20231;42.710;23.280;2023-07-24T07:03:04;26.10;;;12.30;;
33952;SDS011;20231;42.710;23.280;2023-07-24T07:05:31;22.40;;;12.10;;
33952;SDS011;20231;42.710;23.280;2023-07-24T07:07:57;24.83;;;12.57;;
33952;SDS011;20231;42.710;23.280;2023-07-24T07:10:22;27.40;;;12.48;;
33952;SDS011;20231;42.710;23.280;2023-07-24T07:12:47;20.50;;;12.48;;
33952;SDS011;20231;42.710;23.280;2023-07-24T07:15:13;23.58;;;12.32;;
33952;SDS011;20231;42.710;23.280;2023-07-24T07:17:39;21.90;;;10.77;;
33952;SDS011;20231;42.710;23.280;2023-07-24T07:20:04;20.48;;;10.25;;
33952;SDS011;20231;42.710;23.280;2023-07-24T07:22:30;20.23;;;10.45;;
33952;SDS011;20231;42.710;23.280;2023-07-24T07:24:56;22.23;;;10.65;;
33952;SDS011;20231;42.710;23.280;2023-07-24T07:27:21;19.25;;;10.90;;
33952;SDS011;20231;42.710;23.280;2023-07-24T07:29:47;19.92;;;11.00;;
33952;SDS011;20231;42.710;23.280;2023-07-24T07:32:12;16.67;;;10.82;;
33952;SDS011;20231;42.710;23.280;2023-07-24T07:34:37;20.83;;;11.63;;
33952;SDS011;20231;42.710;23.280;2023-07-24T07:37:04;17.40;;;11.05;;
33952;SDS011;20231;42.710;23.280;2023-07-24T07:39:30;23.63;;;11.15;;
33952;SDS011;20231;42.710;23.280;2023-07-24T07:41:56;20.40;;;11.55;;
33952;SDS011;20231;42.710;23.280;2023-07-24T07:44:21;22.58;;;11.38;;
33952;SDS011;20231;42.710;23.280;2023-07-24T07:46:46;19.38;;;10.15;;
33952;SDS011;20231;42.710;23.280;2023-07-24T07:49:12;19.15;;;10.52;;
33952;SDS011;20231;42.710;23.280;2023-07-24T07:51:37;20.05;;;10.57;;
33952;SDS011;20231;42.710;23.280;2023-07-24T07:54:02;19.58;;;10.52;;
33952;SDS011;20231;42.710;23.280;2023-07-24T07:56:28;18.55;;;11.52;;
33952;SDS011;20231;42.710;23.280;2023-07-24T07:58:53;28.35;;;12.07;;
33952;SDS011;20231;42.710;23.280;2023-07-24T08:01:19;19.45;;;10.45;;
33952;SDS011;20231;42.710;23.280;2023-07-24T08:03:45;17.35;;;11.27;;
33952;SDS011;20231;42.710;23.280;2023-07-24T08:06:10;22.58;;;12.35;;
33952;SDS011;20231;42.710;23.280;2023-07-24T08:08:37;18.95;;;10.88;;
33952;SDS011;20231;42.710;23.280;2023-07-24T08:11:05;23.77;;;10.98;;
33952;SDS011;20231;42.710;23.280;2023-07-24T08:13:31;20.40;;;11.60;;
33952;SDS011;20231;42.710;23.280;2023-07-24T08:15:57;17.50;;;10.95;;
33952;SDS011;20231;42.710;23.280;2023-07-24T08:18:24;17.73;;;9.50;;
33952;SDS011;20231;42.710;23.280;2023-07-24T08:20:50;25.55;;;11.88;;
33952;SDS011;20231;42.710;23.280;2023-07-24T08:23:15;19.70;;;10.73;;
33952;SDS011;20231;42.710;23.280;2023-07-24T08:25:50;21.25;;;11.25;;
33952;SDS011;20231;42.710;23.280;2023-07-24T08:28:16;17.23;;;11.07;;
33952;SDS011;20231;42.710;23.280;2023-07-24T08:30:41;25.25;;;11.95;;
33952;SDS011;20231;42.710;23.280;2023-07-24T08:33:07;19.65;;;11.45;;
33952;SDS011;20231;42.710;23.280;2023-07-24T08:35:32;23.65;;;12.68;;
33952;SDS011;20231;42.710;23.280;2023-07-24T08:37:58;18.85;;;10.52;;
33952;SDS011;20231;42.710;23.280;2023-07-24T08:40:23;21.20;;;12.23;;
33952;SDS011;20231;42.710;23.280;2023-07-24T08:42:49;31.77;;;12.43;;
33952;SDS011;20231;42.710;23.280;2023-07-24T08:45:15;19.38;;;11.18;;
33952;SDS011;20231;42.710;23.280;2023-07-24T08:47:42;19.73;;;10.77;;
33952;SDS011;20231;42.710;23.280;2023-07-24T08:50:11;20.33;;;11.55;;
33952;SDS011;20231;42.710;23.280;2023-07-24T08:52:38;20.70;;;11.63;;
33952;SDS011;20231;42.710;23.280;2023-07-24T08:55:04;18.65;;;11.63;;
33952;SDS011;20231;42.710;23.280;2023-07-24T08:57:30;23.27;;;12.25;;
33952;SDS011;20231;42.710;23.280;2023-07-24T08:59:56;24.60;;;12.60;;
33952;SDS011;20231;42.710;23.280;2023-07-24T09:02:22;26.48;;;13.05;;
33952;SDS011;20231;42.710;23.280;2023-07-24T09:04:48;23.55;;;12.05;;
33952;SDS011;20231;42.710;23.280;2023-07-24T09:07:13;21.60;;;11.68;;
33952;SDS011;20231;42.710;23.280;2023-07-24T09:09:39;22.13;;;12.25;;
33952;SDS011;20231;42.710;23.280;2023-07-24T09:12:05;19.42;;;11.52;;
33952;SDS011;20231;42.710;23.280;2023-07-24T09:14:30;23.27;;;11.88;;
33952;SDS011;20231;42.710;23.280;2023-07-24T09:17:06;22.73;;;12.90;;
33952;SDS011;20231;42.710;23.280;2023-07-24T09:19:32;23.30;;;11.20;;
33952;SDS011;20231;42.710;23.280;2023-07-24T09:22:14;19.52;;;11.43;;
33952;SDS011;20231;42.710;23.280;2023-07-24T09:24:50;21.85;;;12.23;;
33952;SDS011;20231;42.710;23.280;2023-07-24T09:27:19;20.58;;;11.90;;
33952;SDS011;20231;42.710;23.280;2023-07-24T09:29:45;24.52;;;13.13;;
33952;SDS011;20231;42.710;23.280;2023-07-24T09:32:21;22.17;;;11.45;;
33952;SDS011;20231;42.710;23.280;2023-07-24T09:34:51;23.95;;;12.48;;
33952;SDS011;20231;42.710;23.280;2023-07-24T09:37:32;26.50;;;12.23;;
33952;SDS011;20231;42.710;23.280;2023-07-24T09:39:59;25.88;;;11.23;;
33952;SDS011;20231;42.710;23.280;2023-07-24T09:42:31;26.33;;;11.48;;
33952;SDS011;20231;42.710;23.280;2023-07-24T09:44:58;26.25;;;12.25;;
33952;SDS011;20231;42.710;23.280;2023-07-24T09:47:24;21.13;;;12.05;;
33952;SDS011;20231;42.710;23.280;2023-07-24T09:49:51;24.00;;;12.15;;
33952;SDS011;20231;42.710;23.280;2023-07-24T09:52:18;34.38;;;12.57;;
33952;SDS011;20231;42.710;23.280;2023-07-24T09:54:49;23.98;;;12.30;;
33952;SDS011;20231;42.710;23.280;2023-07-24T09:57:28;26.85;;;12.27;;
33952;SDS011;20231;42.710;23.280;2023-07-24T09:59:54;21.85;;;11.63;;
33952;SDS011;20231;42.710;23.280;2023-07-24T10:02:21;26.15;;;12.15;;
33952;SDS011;20231;42.710;23.280;2023-07-24T10:04:48;27.02;;;11.45;;
33952;SDS011;20231;42.710;23.280;2023-07-24T10:07:14;27.23;;;12.43;;
33952;SDS011;20231;42.710;23.280;2023-07-24T10:09:41;25.58;;;13.25;;
33952;SDS011;20231;42.710;23.280;2023-07-24T10:12:08;20.40;;;11.55;;
33952;SDS011;20231;42.710;23.280;2023-07-24T10:14:34;23.55;;;12.27;;
33952;SDS011;20231;42.710;23.280;2023-07-24T10:17:01;23.02;;;11.32;;
33952;SDS011;20231;42.710;23.280;2023-07-24T10:19:35;26.80;;;12.13;;
33952;SDS011;20231;42.710;23.280;2023-07-24T10:22:10;25.40;;;11.10;;
33952;SDS011;20231;42.710;23.280;2023-07-24T10:24:43;24.07;;;11.50;;
33952;SDS011;20231;42.710;23.280;2023-07-24T10:27:09;26.60;;;11.50;;
33952;SDS011;20231;42.710;23.280;2023-07-24T10:29:36;27.77;;;12.15;;
33952;SDS011;20231;42.710;23.280;2023-07-24T10:32:02;29.23;;;11.75;;
33952;SDS011;20231;42.710;23.280;2023-07-24T10:34:37;29.73;;;12.15;;
33952;SDS011;20231;42.710;23.280;2023-07-24T10:37:06;30.30;;;11.07;;
33952;SDS011;20231;42.710;23.280;2023-07-24T10:39:37;25.42;;;10.65;;
33952;SDS011;20231;42.710;23.280;2023-07-24T10:42:05;25.85;;;11.02;;
33952;SDS011;20231;42.710;23.280;2023-07-24T10:44:31;25.55;;;10.57;;
33952;SDS011;20231;42.710;23.280;2023-07-24T10:46:57;23.60;;;10.45;;
33952;SDS011;20231;42.710;23.280;2023-07-24T10:49:22;17.48;;;8.40;;
33952;SDS011;20231;42.710;23.280;2023-07-24T10:51:54;26.60;;;9.63;;
33952;SDS011;20231;42.710;23.280;2023-07-24T10:54:24;22.63;;;9.90;;
33952;SDS011;20231;42.710;23.280;2023-07-24T10:56:50;22.45;;;9.63;;
33952;SDS011;20231;42.710;23.280;2023-07-24T10:59:22;31.70;;;11.43;;
33952;SDS011;20231;42.710;23.280;2023-07-24T11:01:47;26.23;;;11.35;;
33952;SDS011;20231;42.710;23.280;2023-07-24T11:04:12;18.98;;;9.88;;
33952;SDS011;20231;42.710;23.280;2023-07-24T11:06:38;23.17;;;9.63;;
33952;SDS011;20231;42.710;23.280;2023-07-24T11:09:04;23.38;;;10.07;;
33952;SDS011;20231;42.710;23.280;2023-07-24T11:11:30;17.55;;;9.80;;
33952;SDS011;20231;42.710;23.280;2023-07-24T11:14:00;21.58;;;9.98;;
33952;SDS011;20231;42.710;23.280;2023-07-24T11:16:26;23.17;;;10.32;;
33952;SDS011;20231;42.710;23.280;2023-07-24T11:18:52;25.63;;;9.65;;
33952;SDS011;20231;42.710;23.280;2023-07-24T11:21:18;16.20;;;9.05;;
33952;SDS011;20231;42.710;23.280;2023-07-24T11:23:48;22.60;;;10.48;;
33952;SDS011;20231;42.710;23.280;2023-07-24T11:26:24;17.80;;;9.65;;
33952;SDS011;20231;42.710;23.280;2023-07-24T11:28:51;22.95;;;9.80;;
33952;SDS011;20231;42.710;23.280;2023-07-24T11:31:17;19.88;;;9.68;;
33952;SDS011;20231;42.710;23.280;2023-07-24T11:33:46;26.88;;;10.52;;
33952;SDS011;20231;42.710;23.280;2023-07-24T11:36:13;20.13;;;9.38;;
33952;SDS011;20231;42.710;23.280;2023-07-24T11:38:39;22.10;;;9.73;;
33952;SDS011;20231;42.710;23.280;2023-07-24T11:41:05;19.40;;;9.43;;
33952;SDS011;20231;42.710;23.280;2023-07-24T11:43:32;18.13;;;9.68;;
33952;SDS011;20231;42.710;23.280;2023-07-24T11:45:58;19.40;;;10.45;;
33952;SDS011;20231;42.710;23.280;2023-07-24T11:48:24;23.73;;;10.07;;
33952;SDS011;20231;42.710;23.280;2023-07-24T11:50:51;21.55;;;9.48;;
33952;SDS011;20231;42.710;23.280;2023-07-24T11:55:53;21.65;;;10.20;;
33952;SDS011;20231;42.710;23.280;2023-07-24T11:58:20;23.65;;;9.25;;
33952;SDS011;20231;42.710;23.280;2023-07-24T12:00:46;21.52;;;10.10;;
33952;SDS011;20231;42.710;23.280;2023-07-24T12:03:13;16.77;;;10.15;;
33952;SDS011;20231;42.710;23.280;2023-07-24T12:08:06;18.65;;;10.15;;
33952;SDS011;20231;42.710;23.280;2023-07-24T12:10:34;23.98;;;9.75;;
33952;SDS011;20231;42.710;23.280;2023-07-24T12:13:03;21.90;;;10.30;;
33952;SDS011;20231;42.710;23.280;2023-07-24T12:15:29;17.27;;;9.48;;
33952;SDS011;20231;42.710;23.280;2023-07-24T12:17:55;18.60;;;9.45;;
33952;SDS011;20231;42.710;23.280;2023-07-24T12:20:22;20.90;;;9.05;;
33952;SDS011;20231;42.710;23.280;2023-07-24T12:22:48;15.82;;;9.10;;
33952;SDS011;20231;42.710;23.280;2023-07-24T12:25:13;17.55;;;9.07;;
33952;SDS011;20231;42.710;23.280;2023-07-24T12:27:40;16.52;;;8.85;;
33952;SDS011;20231;42.710;23.280;2023-07-24T12:30:07;13.65;;;8.38;;
33952;SDS011;20231;42.710;23.280;2023-07-24T12:32:32;19.05;;;9.15;;
33952;SDS011;20231;42.710;23.280;2023-07-24T12:34:58;16.30;;;9.25;;
33952;SDS011;20231;42.710;23.280;2023-07-24T12:37:23;22.25;;;9.13;;
33952;SDS011;20231;42.710;23.280;2023-07-24T12:39:48;16.55;;;10.02;;
33952;SDS011;20231;42.710;23.280;2023-07-24T12:42:14;19.33;;;9.20;;
33952;SDS011;20231;42.710;23.280;2023-07-24T12:44:41;16.58;;;9.02;;
33952;SDS011;20231;42.710;23.280;2023-07-24T12:47:07;17.48;;;8.93;;
33952;SDS011;20231;42.710;23.280;2023-07-24T12:49:33;21.75;;;9.73;;
33952;SDS011;20231;42.710;23.280;2023-07-24T12:51:59;14.98;;;9.18;;
33952;SDS011;20231;42.710;23.280;2023-07-24T12:54:24;19.20;;;9.75;;
33952;SDS011;20231;42.710;23.280;2023-07-24T12:56:50;20.00;;;9.43;;
33952;SDS011;20231;42.710;23.280;2023-07-24T12:59:17;23.60;;;10.18;;
33952;SDS011;20231;42.710;23.280;2023-07-24T13:01:43;18.00;;;9.35;;
33952;SDS011;20231;42.710;23.280;2023-07-24T13:04:09;16.90;;;9.65;;
33952;SDS011;20231;42.710;23.280;2023-07-24T13:06:35;15.40;;;9.30;;
33952;SDS011;20231;42.710;23.280;2023-07-24T13:09:00;25.20;;;9.60;;
33952;SDS011;20231;42.710;23.280;2023-07-24T13:11:26;13.65;;;9.13;;
33952;SDS011;20231;42.710;23.280;2023-07-24T13:13:53;17.00;;;9.05;;
33952;SDS011;20231;42.710;23.280;2023-07-24T13:16:18;20.02;;;10.00;;
33952;SDS011;20231;42.710;23.280;2023-07-24T13:18:44;12.57;;;9.45;;
33952;SDS011;20231;42.710;23.280;2023-07-24T13:21:09;20.17;;;9.48;;
33952;SDS011;20231;42.710;23.280;2023-07-24T13:23:35;19.17;;;9.35;;
33952;SDS011;20231;42.710;23.280;2023-07-24T13:26:00;21.67;;;9.07;;
33952;SDS011;20231;42.710;23.280;2023-07-24T13:28:26;15.15;;;9.80;;
33952;SDS011;20231;42.710;23.280;2023-07-24T13:30:51;23.83;;;9.77;;
33952;SDS011;20231;42.710;23.280;2023-07-24T13:33:17;21.92;;;10.02;;
33952;SDS011;20231;42.710;23.280;2023-07-24T13:35:42;21.02;;;9.77;;
33952;SDS011;20231;42.710;23.280;2023-07-24T13:38:08;17.35;;;9.82;;
33952;SDS011;20231;42.710;23.280;2023-07-24T13:40:34;17.42;;;9.40;;
33952;SDS011;20231;42.710;23.280;2023-07-24T13:43:00;15.73;;;9.70;;
33952;SDS011;20231;42.710;23.280;2023-07-24T13:45:25;19.77;;;9.60;;
33952;SDS011;20231;42.710;23.280;2023-07-24T13:47:50;22.63;;;10.63;;
33952;SDS011;20231;42.710;23.280;2023-07-24T13:50:16;15.77;;;9.57;;
33952;SDS011;20231;42.710;23.280;2023-07-24T13:52:41;16.05;;;9.90;;
33952;SDS011;20231;42.710;23.280;2023-07-24T13:55:07;14.90;;;9.98;;
33952;SDS011;20231;42.710;23.280;2023-07-24T13:57:32;19.02;;;8.90;;
33952;SDS011;20231;42.710;23.280;2023-07-24T13:59:58;15.38;;;10.25;;
33952;SDS011;20231;42.710;23.280;2023-07-24T14:02:23;21.85;;;9.82;;
33952;SDS011;20231;42.710;23.280;2023-07-24T14:04:48;19.35;;;9.68;;
33952;SDS011;20231;42.710;23.280;2023-07-24T14:07:14;15.43;;;11.23;;
33952;SDS011;20231;42.710;23.280;2023-07-24T14:09:39;16.90;;;10.75;;
33952;SDS011;20231;42.710;23.280;2023-07-24T14:12:05;18.92;;;10.63;;
33952;SDS011;20231;42.710;23.280;2023-07-24T14:14:30;25.23;;;10.45;;
33952;SDS011;20231;42.710;23.280;2023-07-24T14:16:56;18.17;;;10.40;;
33952;SDS011;20231;42.710;23.280;2023-07-24T14:19:22;18.92;;;10.70;;
33952;SDS011;20231;42.710;23.280;2023-07-24T14:21:48;16.77;;;10.75;;
33952;SDS011;20231;42.710;23.280;2023-07-24T14:24:15;19.52;;;10.75;;